createdAt,value
2022-10-26T00:01:05.245Z,20.63
2022-10-26T00:03:34.001Z,21.60
2022-10-26T00:06:10.290Z,20.48
2022-10-26T00:08:38.568Z,22.17
2022-10-26T00:11:08.844Z,20.90
2022-10-26T00:13:38.064Z,19.55
2022-10-26T00:16:09.538Z,22.88
2022-10-26T00:18:39.855Z,24.38
2022-10-26T00:21:08.905Z,20.33
2022-10-26T00:23:36.803Z,21.20
2022-10-26T00:26:05.775Z,21.20
2022-10-26T00:28:35.224Z,21.15
2022-10-26T00:31:04.394Z,20.65
2022-10-26T00:33:32.540Z,20.77
2022-10-26T00:36:00.617Z,18.75
2022-10-26T00:38:28.800Z,22.58
2022-10-26T00:43:40.269Z,24.08
2022-10-26T00:46:12.850Z,23.52
2022-10-26T00:48:44.380Z,26.15
2022-10-26T00:51:19.565Z,25.77
2022-10-26T00:53:47.995Z,25.63
2022-10-26T00:56:16.149Z,23.25
2022-10-26T00:58:45.638Z,23.00
2022-10-26T01:01:13.651Z,24.00
2022-10-26T01:03:43.087Z,22.88
2022-10-26T01:06:13.041Z,25.73
2022-10-26T01:08:42.923Z,26.17
2022-10-26T01:11:11.852Z,23.67
2022-10-26T01:13:40.512Z,23.52
2022-10-26T01:16:26.898Z,25.48
2022-10-26T01:19:09.582Z,26.58
2022-10-26T01:24:45.698Z,25.08
2022-10-26T01:27:28.211Z,26.30
2022-10-26T01:30:34.838Z,25.42
2022-10-26T01:33:14.198Z,25.27
2022-10-26T01:35:50.163Z,24.08
2022-10-26T01:38:25.886Z,24.33
2022-10-26T01:40:59.556Z,25.42
2022-10-26T01:43:32.962Z,25.15
2022-10-26T01:46:04.494Z,22.63
2022-10-26T01:48:33.962Z,22.47
2022-10-26T01:51:04.795Z,22.95
2022-10-26T01:53:32.852Z,22.90
2022-10-26T01:56:02.519Z,22.98
2022-10-26T01:58:57.829Z,21.58
2022-10-26T02:02:02.738Z,22.13
2022-10-26T02:04:42.129Z,21.13
2022-10-26T02:07:19.444Z,22.15
2022-10-26T02:09:57.931Z,20.85
2022-10-26T02:12:36.625Z,23.25
2022-10-26T02:15:09.176Z,20.75
2022-10-26T02:17:47.295Z,20.85
2022-10-26T02:20:19.131Z,19.95
2022-10-26T02:22:50.072Z,20.23
2022-10-26T02:25:21.879Z,22.05
2022-10-26T02:27:54.788Z,22.27
2022-10-26T02:30:23.089Z,21.15
2022-10-26T02:32:55.932Z,19.63
2022-10-26T02:35:26.506Z,19.05
2022-10-26T02:37:57.004Z,19.40
2022-10-26T02:40:28.374Z,18.60
2022-10-26T02:43:00.935Z,17.55
2022-10-26T02:45:34.095Z,17.85
2022-10-26T02:48:03.485Z,17.48
2022-10-26T02:50:37.657Z,18.77
2022-10-26T02:53:12.861Z,18.58
2022-10-26T02:55:47.727Z,20.38
2022-10-26T02:58:20.714Z,22.77
2022-10-26T03:00:48.789Z,22.13
2022-10-26T03:03:19.252Z,19.35
2022-10-26T03:05:47.707Z,18.42
2022-10-26T03:08:15.673Z,17.63
2022-10-26T03:10:45.303Z,17.67
2022-10-26T03:13:14.659Z,20.15
2022-10-26T03:15:42.534Z,20.10
2022-10-26T03:18:10.417Z,18.95
2022-10-26T03:20:39.637Z,18.70
2022-10-26T03:23:07.842Z,19.48
2022-10-26T03:25:35.737Z,18.77
2022-10-26T03:28:05.439Z,21.48
2022-10-26T03:30:33.666Z,21.77
2022-10-26T03:33:01.528Z,21.33
2022-10-26T03:35:29.522Z,22.52
2022-10-26T03:37:58.722Z,23.88
2022-10-26T03:40:26.735Z,26.17
2022-10-26T03:42:54.635Z,24.15
2022-10-26T03:45:22.487Z,27.08
2022-10-26T03:47:51.303Z,27.65
2022-10-26T03:50:21.203Z,25.10
2022-10-26T03:52:50.723Z,26.40
2022-10-26T03:55:20.457Z,26.52
2022-10-26T03:57:48.425Z,26.50
2022-10-26T04:00:18.491Z,25.80
2022-10-26T04:02:48.800Z,25.08
2022-10-26T04:05:17.205Z,27.52
2022-10-26T04:07:45.204Z,28.58
2022-10-26T04:10:13.077Z,33.58
2022-10-26T04:12:42.342Z,29.45
2022-10-26T04:15:11.013Z,29.95
2022-10-26T04:17:38.962Z,26.77
2022-10-26T04:20:07.996Z,29.10
2022-10-26T04:22:36.530Z,28.40
2022-10-26T04:25:04.491Z,30.65
2022-10-26T04:27:32.535Z,31.45
2022-10-26T04:30:01.837Z,33.08
2022-10-26T04:32:29.684Z,33.63
2022-10-26T04:34:57.571Z,35.03
2022-10-26T04:37:25.485Z,35.75
2022-10-26T04:39:53.368Z,34.28
2022-10-26T04:42:23.510Z,32.85
2022-10-26T04:44:51.377Z,32.13
2022-10-26T04:47:20.618Z,30.77
2022-10-26T04:49:48.522Z,32.42
2022-10-26T04:52:16.431Z,33.50
2022-10-26T04:54:44.330Z,34.08
2022-10-26T04:57:12.242Z,32.10
2022-10-26T04:59:40.136Z,33.33
2022-10-26T05:02:08.131Z,32.75
2022-10-26T05:04:37.426Z,31.48
2022-10-26T05:07:05.380Z,34.85
2022-10-26T05:09:33.401Z,36.08
2022-10-26T05:12:01.286Z,34.65
2022-10-26T05:14:29.173Z,34.10
2022-10-26T05:16:57.933Z,33.08
2022-10-26T05:19:25.806Z,35.50
2022-10-26T05:21:55.054Z,34.78
2022-10-26T05:24:22.975Z,32.92
2022-10-26T05:26:50.851Z,31.83
2022-10-26T05:29:18.774Z,33.38
2022-10-26T05:31:46.665Z,31.83
2022-10-26T05:34:14.553Z,31.10
2022-10-26T05:36:42.463Z,30.25
2022-10-26T05:39:11.736Z,26.80
2022-10-26T05:41:39.626Z,27.38
2022-10-26T05:44:07.482Z,25.85
2022-10-26T05:46:35.433Z,24.67
2022-10-26T05:49:03.405Z,24.45
2022-10-26T05:51:33.449Z,24.83
2022-10-26T05:54:01.612Z,23.17
2022-10-26T05:56:37.337Z,23.45
2022-10-26T05:59:05.942Z,24.05
2022-10-26T06:01:49.575Z,20.92
2022-10-26T06:04:28.210Z,20.08
2022-10-26T06:06:57.589Z,19.80
2022-10-26T06:09:26.077Z,19.30
2022-10-26T06:11:55.993Z,20.90
2022-10-26T06:14:24.485Z,18.08
2022-10-26T06:17:13.027Z,19.95
2022-10-26T06:19:53.419Z,18.15
2022-10-26T06:22:35.093Z,18.55
2022-10-26T06:25:16.659Z,17.58
2022-10-26T06:27:52.963Z,19.27
2022-10-26T06:30:23.340Z,19.98
2022-10-26T06:33:01.114Z,19.80
2022-10-26T06:35:51.360Z,21.38
2022-10-26T06:38:21.577Z,20.50
2022-10-26T06:40:52.441Z,20.25
2022-10-26T06:43:26.506Z,20.60
2022-10-26T06:46:05.088Z,18.60
2022-10-26T06:48:50.617Z,21.05
2022-10-26T06:51:20.273Z,20.63
2022-10-26T06:53:53.025Z,18.17
2022-10-26T06:56:21.182Z,19.23
2022-10-26T06:58:53.401Z,20.20
2022-10-26T07:01:21.635Z,19.90
2022-10-26T07:03:49.634Z,21.80
2022-10-26T07:08:50.326Z,21.13
2022-10-26T07:11:18.209Z,22.33
2022-10-26T07:13:46.217Z,22.48
2022-10-26T07:16:15.447Z,23.05
2022-10-26T07:18:43.299Z,22.17
2022-10-26T07:21:11.476Z,22.10
2022-10-26T07:23:39.383Z,21.10
2022-10-26T07:26:07.450Z,20.55
2022-10-26T07:28:36.507Z,20.27
2022-10-26T07:31:05.542Z,24.02
2022-10-26T07:33:36.957Z,24.73
2022-10-26T07:36:10.910Z,24.40
2022-10-26T07:38:38.895Z,21.75
2022-10-26T07:41:07.460Z,23.50
2022-10-26T07:43:35.335Z,21.63
2022-10-26T07:46:03.329Z,21.63
2022-10-26T07:48:31.317Z,20.63
2022-10-26T07:51:03.215Z,23.27
2022-10-26T07:53:31.407Z,23.33
2022-10-26T07:55:59.726Z,24.13
2022-10-26T07:58:28.263Z,23.42
2022-10-26T08:00:56.923Z,24.52
2022-10-26T08:03:25.110Z,23.35
2022-10-26T08:05:55.838Z,20.50
2022-10-26T08:08:25.196Z,21.95
2022-10-26T08:10:53.113Z,22.83
2022-10-26T08:13:21.015Z,20.05
2022-10-26T08:15:49.168Z,20.63
2022-10-26T08:18:17.238Z,19.73
2022-10-26T08:20:45.147Z,19.45
2022-10-26T08:23:13.015Z,18.13
2022-10-26T08:25:42.263Z,18.25
2022-10-26T08:28:10.133Z,19.42
2022-10-26T08:30:38.135Z,19.58
2022-10-26T08:33:07.879Z,19.75
2022-10-26T08:35:35.871Z,17.20
2022-10-26T08:38:03.766Z,16.50
2022-10-26T08:40:34.222Z,14.98
2022-10-26T08:43:06.724Z,16.17
2022-10-26T08:45:38.965Z,13.45
2022-10-26T08:48:15.085Z,14.73
2022-10-26T08:50:46.551Z,13.82
2022-10-26T08:53:21.559Z,11.50
2022-10-26T08:55:54.698Z,10.70
2022-10-26T08:58:29.150Z,11.50
2022-10-26T09:00:59.492Z,10.85
2022-10-26T09:03:27.365Z,11.20
2022-10-26T09:06:11.896Z,10.13
2022-10-26T09:08:51.225Z,11.10
2022-10-26T09:11:27.070Z,10.27
2022-10-26T09:14:05.351Z,9.88
2022-10-26T09:16:42.870Z,9.35
2022-10-26T09:19:35.902Z,8.95
2022-10-26T09:22:11.314Z,10.38
2022-10-26T09:24:43.337Z,9.68
2022-10-26T09:27:18.538Z,8.68
2022-10-26T09:29:49.151Z,9.07
2022-10-26T09:32:19.794Z,8.45
2022-10-26T09:34:51.394Z,7.50
2022-10-26T09:37:22.146Z,9.25
2022-10-26T09:39:57.237Z,9.15
2022-10-26T09:42:31.181Z,8.75
2022-10-26T09:45:06.567Z,9.23
2022-10-26T09:47:37.984Z,7.90
2022-10-26T09:50:19.725Z,8.03
2022-10-26T09:52:47.972Z,8.57
2022-10-26T09:55:16.743Z,7.55
2022-10-26T09:57:47.297Z,8.57
2022-10-26T10:00:19.401Z,8.05
2022-10-26T10:02:51.929Z,7.60
2022-10-26T10:08:21.058Z,6.68
2022-10-26T10:11:03.170Z,6.80
2022-10-26T10:13:33.321Z,7.82
2022-10-26T10:16:07.358Z,7.07
2022-10-26T10:18:36.546Z,6.78
2022-10-26T10:21:05.902Z,7.30
2022-10-26T10:23:35.332Z,7.50
2022-10-26T10:26:06.811Z,7.05
2022-10-26T10:28:35.665Z,6.73
2022-10-26T10:31:07.120Z,5.35
2022-10-26T10:33:40.286Z,6.53
2022-10-26T10:36:12.823Z,6.07
2022-10-26T10:38:43.275Z,6.30
2022-10-26T10:41:20.954Z,7.03
2022-10-26T10:43:51.393Z,6.70
2022-10-26T10:46:23.654Z,7.10
2022-10-26T10:51:25.080Z,6.30
2022-10-26T10:53:55.343Z,6.78
2022-10-26T10:56:32.893Z,6.50
2022-10-26T10:59:21.043Z,5.28
2022-10-26T11:01:56.912Z,5.40
2022-10-26T11:04:58.782Z,4.68
2022-10-26T11:07:27.827Z,5.53
2022-10-26T11:09:58.580Z,6.10
2022-10-26T11:12:30.583Z,5.80
2022-10-26T11:15:02.538Z,5.88
2022-10-26T11:17:34.639Z,5.07
2022-10-26T11:20:10.048Z,5.22
2022-10-26T11:22:44.599Z,4.35
2022-10-26T11:25:18.770Z,5.40
2022-10-26T11:27:51.852Z,4.90
2022-10-26T11:30:22.217Z,3.67
2022-10-26T11:32:56.192Z,3.70
2022-10-26T11:35:28.906Z,3.80
2022-10-26T11:38:05.558Z,4.07
2022-10-26T11:40:43.489Z,4.82
2022-10-26T11:43:17.192Z,4.28
2022-10-26T11:45:47.725Z,4.50
2022-10-26T11:48:23.954Z,4.28
2022-10-26T11:50:55.891Z,3.95
2022-10-26T11:53:29.478Z,3.67
2022-10-26T11:55:59.245Z,3.42
2022-10-26T11:58:28.736Z,3.20
2022-10-26T12:01:01.084Z,3.22
2022-10-26T12:03:35.414Z,4.20
2022-10-26T12:06:03.659Z,4.45
2022-10-26T12:08:36.735Z,3.80
2022-10-26T12:11:10.726Z,3.70
2022-10-26T12:13:43.809Z,3.50
2022-10-26T12:16:23.106Z,3.50
2022-10-26T12:18:58.931Z,4.13
2022-10-26T12:21:29.554Z,3.88
2022-10-26T12:23:59.539Z,3.28
2022-10-26T12:26:54.925Z,4.20
2022-10-26T12:29:32.551Z,3.67
2022-10-26T12:32:00.821Z,3.47
2022-10-26T12:35:01.410Z,3.40
2022-10-26T12:37:37.036Z,3.20
2022-10-26T12:40:40.721Z,3.85
2022-10-26T12:43:37.372Z,3.20
2022-10-26T12:46:45.351Z,3.40
2022-10-26T12:49:49.158Z,2.60
2022-10-26T12:52:27.476Z,2.97
2022-10-26T12:55:28.188Z,3.20
2022-10-26T12:58:08.453Z,2.80
2022-10-26T13:00:43.707Z,2.70
2022-10-26T13:03:24.495Z,2.70
2022-10-26T13:06:18.184Z,2.60
2022-10-26T13:08:49.927Z,2.55
2022-10-26T13:11:21.837Z,2.20
2022-10-26T13:13:55.306Z,2.20
2022-10-26T13:16:26.276Z,2.33
2022-10-26T13:18:54.346Z,1.90
2022-10-26T13:21:24.704Z,2.40
2022-10-26T13:24:02.321Z,2.20
2022-10-26T13:26:31.621Z,1.95
2022-10-26T13:29:00.445Z,2.63
2022-10-26T13:31:56.941Z,1.73
2022-10-26T13:34:27.810Z,2.00
2022-10-26T13:37:06.379Z,1.95
2022-10-26T13:39:38.716Z,1.90
2022-10-26T13:42:08.711Z,1.90
2022-10-26T13:44:43.003Z,1.77
2022-10-26T13:47:16.139Z,1.92
2022-10-26T13:49:47.123Z,2.22
2022-10-26T13:52:17.794Z,2.05
2022-10-26T13:54:49.976Z,1.90
2022-10-26T13:57:22.014Z,2.13
2022-10-26T14:02:23.205Z,2.15
2022-10-26T14:04:55.109Z,1.85
2022-10-26T14:07:26.661Z,1.92
2022-10-26T14:09:57.973Z,1.95
2022-10-26T14:12:28.941Z,2.40
2022-10-26T14:15:02.844Z,2.50
2022-10-26T14:17:30.887Z,2.03
2022-10-26T14:19:59.014Z,1.90
2022-10-26T14:22:30.229Z,2.00
2022-10-26T14:25:01.603Z,2.43
2022-10-26T14:27:38.918Z,2.20
2022-10-26T14:30:23.705Z,2.08
2022-10-26T14:32:52.244Z,2.20
2022-10-26T14:35:25.443Z,2.13
2022-10-26T14:37:56.044Z,2.25
2022-10-26T14:40:28.175Z,1.90
2022-10-26T14:45:47.551Z,2.20
2022-10-26T14:48:23.805Z,2.10
2022-10-26T14:51:02.794Z,2.20
2022-10-26T14:53:36.650Z,2.55
2022-10-26T14:56:17.571Z,2.17
2022-10-26T14:58:45.867Z,2.05
2022-10-26T15:01:25.163Z,2.10
2022-10-26T15:03:58.166Z,2.17
2022-10-26T15:06:39.356Z,2.60
2022-10-26T15:09:07.758Z,2.22
2022-10-26T15:11:49.713Z,2.25
2022-10-26T15:14:18.616Z,2.20
2022-10-26T15:16:53.728Z,2.40
2022-10-26T15:19:24.054Z,2.35
2022-10-26T15:21:53.394Z,2.53
2022-10-26T15:24:37.485Z,2.28
2022-10-26T15:27:15.889Z,2.05
2022-10-26T15:29:45.716Z,2.35
2022-10-26T15:32:38.947Z,2.00
2022-10-26T15:35:25.184Z,2.10
2022-10-26T15:37:55.082Z,2.10
2022-10-26T15:40:23.822Z,2.45
2022-10-26T15:42:54.892Z,2.28
2022-10-26T15:45:24.639Z,2.70
2022-10-26T15:47:53.679Z,2.33
2022-10-26T15:50:23.518Z,2.92
2022-10-26T15:52:56.046Z,2.38
2022-10-26T15:55:23.987Z,2.25
2022-10-26T15:57:53.405Z,2.13
2022-10-26T16:00:21.689Z,2.47
2022-10-26T16:02:50.136Z,1.90
2022-10-26T16:05:18.529Z,2.53
2022-10-26T16:07:48.818Z,1.92
2022-10-26T16:10:21.531Z,2.53
2022-10-26T16:12:50.644Z,2.40
2022-10-26T16:15:22.192Z,2.50
2022-10-26T16:17:50.922Z,2.78
2022-10-26T16:20:22.806Z,2.60
2022-10-26T16:22:52.158Z,2.75
2022-10-26T16:25:22.758Z,2.50
2022-10-26T16:27:51.299Z,2.63
2022-10-26T16:30:23.692Z,3.13
2022-10-26T16:32:54.057Z,2.72
2022-10-26T16:35:22.030Z,3.33
2022-10-26T16:37:50.074Z,2.72
2022-10-26T16:40:18.055Z,2.80
2022-10-26T16:42:46.686Z,3.25
2022-10-26T16:45:16.070Z,3.58
2022-10-26T16:47:45.410Z,3.00
2022-10-26T16:50:14.885Z,2.88
2022-10-26T16:52:42.812Z,3.58
2022-10-26T16:55:11.014Z,2.63
2022-10-26T16:57:39.148Z,3.03
2022-10-26T17:00:08.356Z,3.25
2022-10-26T17:02:36.540Z,3.60
2022-10-26T17:05:07.651Z,3.75
2022-10-26T17:07:35.861Z,3.53
2022-10-26T17:10:04.226Z,3.20
2022-10-26T17:12:32.200Z,4.10
2022-10-26T17:15:01.461Z,4.18
2022-10-26T17:17:29.351Z,3.42
2022-10-26T17:19:57.394Z,3.50
2022-10-26T17:22:26.637Z,4.07
2022-10-26T17:24:54.646Z,3.47
2022-10-26T17:27:23.098Z,4.05
2022-10-26T17:29:50.987Z,4.10
2022-10-26T17:32:19.063Z,4.22
2022-10-26T17:34:46.984Z,3.95
2022-10-26T17:37:15.038Z,3.95
2022-10-26T17:39:44.285Z,4.10
2022-10-26T17:42:12.154Z,3.88
2022-10-26T17:44:40.072Z,4.65
2022-10-26T17:47:08.761Z,4.20
2022-10-26T17:49:36.863Z,4.75
2022-10-26T17:52:05.956Z,5.13
2022-10-26T17:54:33.868Z,4.18
2022-10-26T17:57:03.304Z,4.53
2022-10-26T17:59:31.261Z,4.40
2022-10-26T18:01:59.347Z,4.30
2022-10-26T18:04:27.475Z,4.68
2022-10-26T18:06:55.358Z,4.20
2022-10-26T18:09:23.388Z,4.60
2022-10-26T18:11:54.850Z,5.10
2022-10-26T18:14:25.346Z,5.10
2022-10-26T18:16:53.289Z,5.10
2022-10-26T18:19:21.306Z,4.68
2022-10-26T18:21:49.297Z,5.18
2022-10-26T18:24:17.247Z,5.25
2022-10-26T18:26:45.208Z,5.07
2022-10-26T18:29:14.516Z,5.38
2022-10-26T18:31:45.970Z,5.68
2022-10-26T18:34:14.203Z,5.83
2022-10-26T18:36:42.565Z,6.05
2022-10-26T18:39:10.633Z,4.68
2022-10-26T18:41:38.517Z,5.32
2022-10-26T18:44:06.933Z,5.25
2022-10-26T18:46:40.733Z,5.88
2022-10-26T18:49:10.641Z,5.78
2022-10-26T18:51:38.600Z,6.15
2022-10-26T18:54:06.854Z,6.20
2022-10-26T18:56:35.023Z,6.25
2022-10-26T18:59:02.975Z,5.47
2022-10-26T19:01:32.595Z,5.63
2022-10-26T19:04:02.254Z,5.57
2022-10-26T19:06:35.467Z,6.15
2022-10-26T19:09:04.387Z,5.97
2022-10-26T19:11:32.991Z,5.97
2022-10-26T19:14:01.222Z,6.68
2022-10-26T19:16:48.132Z,6.38
2022-10-26T19:19:17.064Z,7.25
2022-10-26T19:21:47.200Z,7.05
2022-10-26T19:24:16.766Z,8.20
2022-10-26T19:26:45.094Z,7.95
2022-10-26T19:29:15.376Z,7.75
2022-10-26T19:31:44.679Z,9.13
2022-10-26T19:34:15.859Z,10.18
2022-10-26T19:36:46.357Z,12.05
2022-10-26T19:39:17.979Z,15.02
2022-10-26T19:41:48.776Z,16.10
2022-10-26T19:44:17.370Z,16.35
2022-10-26T19:46:47.527Z,14.18
2022-10-26T19:49:17.498Z,14.13
2022-10-26T19:51:46.853Z,10.38
2022-10-26T19:54:16.259Z,12.57
2022-10-26T19:56:44.184Z,11.88
2022-10-26T19:59:12.568Z,10.70
2022-10-26T20:01:40.779Z,9.13
2022-10-26T20:04:08.694Z,9.60
2022-10-26T20:06:36.786Z,11.20
2022-10-26T20:09:05.355Z,8.93
2022-10-26T20:11:36.713Z,11.10
2022-10-26T20:14:07.501Z,10.57
2022-10-26T20:16:35.409Z,12.52
2022-10-26T20:19:03.307Z,11.88
2022-10-26T20:21:32.059Z,12.80
2022-10-26T20:24:00.066Z,13.07
2022-10-26T20:26:28.645Z,15.38
2022-10-26T20:28:58.099Z,11.18
2022-10-26T20:31:26.145Z,11.68
2022-10-26T20:33:54.242Z,9.57
2022-10-26T20:36:23.669Z,10.63
2022-10-26T20:38:52.229Z,12.13
2022-10-26T20:41:20.858Z,12.43
2022-10-26T20:43:50.608Z,14.00
2022-10-26T20:46:24.374Z,14.27
2022-10-26T20:48:55.466Z,13.93
2022-10-26T20:51:35.908Z,12.45
2022-10-26T20:54:08.149Z,14.35
2022-10-26T20:56:40.057Z,14.73
2022-10-26T20:59:14.439Z,12.50
2022-10-26T21:01:46.606Z,15.02
2022-10-26T21:06:45.805Z,14.27
2022-10-26T21:09:13.915Z,15.15
2022-10-26T21:11:41.890Z,14.10
2022-10-26T21:14:09.743Z,16.30
2022-10-26T21:16:37.715Z,15.55
2022-10-26T21:19:08.321Z,14.82
2022-10-26T21:21:39.398Z,14.23
2022-10-26T21:24:07.906Z,15.65
2022-10-26T21:26:38.463Z,12.20
2022-10-26T21:29:06.776Z,16.10
2022-10-26T21:31:36.886Z,18.17
2022-10-26T21:34:06.441Z,16.55
2022-10-26T21:36:34.470Z,16.90
2022-10-26T21:39:02.390Z,15.85
2022-10-26T21:41:30.697Z,16.38
2022-10-26T21:44:08.641Z,18.05
2022-10-26T21:46:38.920Z,19.20
2022-10-26T21:49:08.345Z,18.90
2022-10-26T21:51:36.419Z,22.35
2022-10-26T21:54:07.166Z,26.50
2022-10-26T21:56:35.366Z,27.67
2022-10-26T21:59:03.250Z,27.02
2022-10-26T22:01:31.200Z,26.30
2022-10-26T22:03:59.284Z,26.00
2022-10-26T22:06:31.175Z,28.52
2022-10-26T22:09:01.007Z,26.85
2022-10-26T22:11:28.962Z,25.23
2022-10-26T22:13:56.843Z,27.88
2022-10-26T22:16:29.238Z,27.50
2022-10-26T22:19:00.263Z,26.20
2022-10-26T22:21:33.185Z,30.00
2022-10-26T22:24:04.303Z,26.95
2022-10-26T22:26:36.412Z,28.50
2022-10-26T22:29:06.915Z,24.00
2022-10-26T22:31:39.332Z,25.50
2022-10-26T22:34:09.218Z,29.45
2022-10-26T22:36:38.498Z,27.38
2022-10-26T22:39:06.638Z,28.73
2022-10-26T22:41:34.630Z,30.67
2022-10-26T22:44:02.558Z,27.70
2022-10-26T22:46:30.410Z,27.35
2022-10-26T22:49:00.178Z,26.92
2022-10-26T22:51:30.246Z,27.70
2022-10-26T22:54:01.591Z,30.05
2022-10-26T22:56:31.297Z,30.92
2022-10-26T22:58:59.794Z,29.33
2022-10-26T23:01:29.303Z,30.55
2022-10-26T23:03:57.520Z,27.92
2022-10-26T23:06:27.738Z,25.80
2022-10-26T23:08:55.887Z,31.17
2022-10-26T23:11:26.978Z,33.53
2022-10-26T23:13:55.629Z,34.67
2022-10-26T23:16:24.035Z,32.60
2022-10-26T23:18:53.258Z,30.98
2022-10-26T23:21:22.791Z,30.70
2022-10-26T23:23:50.818Z,33.25
2022-10-26T23:26:21.240Z,30.77
2022-10-26T23:28:51.510Z,32.67
2022-10-26T23:31:21.293Z,35.38
2022-10-26T23:33:51.874Z,35.22
2022-10-26T23:36:20.588Z,35.75
2022-10-26T23:38:49.299Z,31.50
2022-10-26T23:41:17.265Z,37.13
2022-10-26T23:43:45.173Z,42.28
2022-10-26T23:46:14.515Z,38.50
2022-10-26T23:48:42.693Z,32.75
2022-10-26T23:51:10.593Z,31.77
2022-10-26T23:53:38.515Z,33.85
2022-10-26T23:56:07.064Z,37.13
2022-10-26T23:58:34.959Z,38.15
